createdAt,value
2018-03-27T00:00:35.490Z,4.40
2018-03-27T00:03:06.427Z,4.40
2018-03-27T00:05:36.549Z,4.37
2018-03-27T00:08:06.321Z,4.38
2018-03-27T00:10:36.412Z,4.45
2018-03-27T00:13:06.418Z,4.47
2018-03-27T00:15:36.447Z,4.51
2018-03-27T00:18:07.147Z,4.42
2018-03-27T00:20:37.208Z,4.29
2018-03-27T00:23:07.423Z,4.20
2018-03-27T00:25:37.390Z,4.12
2018-03-27T00:28:18.649Z,4.05
2018-03-27T00:31:05.402Z,3.98
2018-03-27T00:33:52.109Z,3.98
2018-03-27T00:36:39.137Z,4.01
2018-03-27T00:39:25.768Z,3.99
2018-03-27T00:45:03.672Z,3.88
2018-03-27T00:47:33.068Z,3.83
2018-03-27T00:50:02.518Z,3.80
2018-03-27T00:52:32.541Z,3.81
2018-03-27T00:55:02.498Z,3.86
2018-03-27T00:57:32.365Z,3.84
2018-03-27T01:00:02.367Z,3.79
2018-03-27T01:02:32.017Z,3.79
2018-03-27T01:05:07.401Z,3.79
2018-03-27T01:07:37.342Z,3.81
2018-03-27T01:10:07.298Z,3.97
2018-03-27T01:12:37.357Z,4.04
2018-03-27T01:15:07.334Z,4.07
2018-03-27T01:17:37.282Z,4.25
2018-03-27T01:20:07.246Z,4.44
2018-03-27T01:22:37.325Z,4.46
2018-03-27T01:25:07.439Z,4.38
2018-03-27T01:27:37.420Z,4.25
2018-03-27T01:30:07.361Z,4.18
2018-03-27T01:32:37.599Z,4.09
2018-03-27T01:35:07.624Z,4.08
2018-03-27T01:37:37.665Z,4.09
2018-03-27T01:40:07.585Z,4.14
2018-03-27T01:42:37.552Z,4.13
2018-03-27T01:45:07.246Z,4.33
2018-03-27T01:47:37.165Z,4.51
2018-03-27T01:50:07.116Z,4.60
2018-03-27T01:52:37.176Z,4.62
2018-03-27T01:55:07.150Z,4.48
2018-03-27T01:57:37.097Z,4.42
2018-03-27T02:00:06.697Z,4.43
2018-03-27T02:02:36.697Z,4.55
2018-03-27T02:05:06.635Z,4.44
2018-03-27T02:07:36.613Z,4.40
2018-03-27T02:10:06.629Z,4.34
2018-03-27T02:12:41.900Z,4.34
2018-03-27T02:15:17.114Z,4.32
2018-03-27T02:17:52.327Z,4.26
2018-03-27T02:20:27.584Z,4.26
2018-03-27T02:26:07.176Z,4.40
2018-03-27T02:28:37.789Z,4.47
2018-03-27T02:31:07.826Z,4.55
2018-03-27T02:33:37.809Z,4.55
2018-03-27T02:36:07.746Z,4.73
2018-03-27T02:38:37.801Z,4.73
2018-03-27T02:41:07.836Z,4.59
2018-03-27T02:43:37.857Z,4.41
2018-03-27T02:46:07.653Z,4.43
2018-03-27T02:48:37.570Z,4.38
2018-03-27T02:51:07.324Z,4.30
2018-03-27T02:53:37.327Z,4.21
2018-03-27T02:56:07.263Z,4.20
2018-03-27T02:58:37.044Z,4.20
2018-03-27T03:01:06.264Z,4.26
2018-03-27T03:03:36.395Z,4.42
2018-03-27T03:06:06.418Z,4.33
2018-03-27T03:08:37.119Z,4.32
2018-03-27T03:11:07.043Z,4.38
2018-03-27T03:13:36.983Z,4.30
2018-03-27T03:16:06.953Z,4.24
2018-03-27T03:18:37.003Z,4.19
2018-03-27T03:21:07.003Z,4.32
2018-03-27T03:23:37.050Z,4.47
2018-03-27T03:26:06.952Z,4.47
2018-03-27T03:28:36.929Z,4.42
2018-03-27T03:31:06.873Z,4.35
2018-03-27T03:33:36.891Z,4.34
2018-03-27T03:36:06.934Z,4.33
2018-03-27T03:38:36.922Z,4.40
2018-03-27T03:41:06.887Z,4.27
2018-03-27T03:43:36.896Z,4.27
2018-03-27T03:46:07.241Z,4.21
2018-03-27T03:48:36.883Z,4.30
2018-03-27T03:51:06.878Z,4.32
2018-03-27T03:53:36.864Z,4.34
2018-03-27T03:56:06.826Z,4.29
2018-03-27T03:58:36.875Z,4.31
2018-03-27T04:01:06.997Z,4.38
2018-03-27T04:03:36.943Z,4.32
2018-03-27T04:06:06.929Z,4.29
2018-03-27T04:08:37.133Z,4.24
2018-03-27T04:11:07.959Z,4.30
2018-03-27T04:13:37.823Z,4.26
2018-03-27T04:16:07.813Z,4.36
2018-03-27T04:18:37.979Z,4.27
2018-03-27T04:21:07.976Z,4.24
2018-03-27T04:23:37.921Z,4.17
2018-03-27T04:26:07.581Z,4.18
2018-03-27T04:28:37.879Z,4.19
2018-03-27T04:31:08.652Z,4.11
2018-03-27T04:33:38.728Z,4.04
2018-03-27T04:36:08.670Z,4.25
2018-03-27T04:38:38.875Z,4.28
2018-03-27T04:41:08.736Z,4.35
2018-03-27T04:43:38.613Z,4.39
2018-03-27T04:46:08.484Z,4.28
2018-03-27T04:48:38.404Z,4.26
2018-03-27T04:51:08.251Z,4.37
2018-03-27T04:53:38.269Z,4.33
2018-03-27T04:56:08.136Z,4.36
2018-03-27T04:58:38.092Z,4.49
2018-03-27T05:01:07.923Z,4.58
2018-03-27T05:03:37.773Z,4.62
2018-03-27T05:06:07.680Z,4.73
2018-03-27T05:08:37.527Z,4.73
2018-03-27T05:11:07.419Z,4.75
2018-03-27T05:13:37.291Z,4.69
2018-03-27T05:16:07.139Z,4.73
2018-03-27T05:18:36.989Z,4.78
2018-03-27T05:21:06.878Z,4.76
2018-03-27T05:23:36.739Z,4.74
2018-03-27T05:26:06.576Z,4.73
2018-03-27T05:28:36.504Z,4.81
2018-03-27T05:31:06.443Z,4.85
2018-03-27T05:33:36.062Z,4.88
2018-03-27T05:36:05.965Z,4.83
2018-03-27T05:38:35.850Z,4.88
2018-03-27T05:41:05.905Z,4.92
2018-03-27T05:43:39.658Z,4.91
2018-03-27T05:46:09.384Z,4.93
2018-03-27T05:48:39.283Z,4.91
2018-03-27T05:51:09.174Z,4.96
2018-03-27T05:53:39.220Z,4.97
2018-03-27T05:56:09.073Z,4.98
2018-03-27T05:58:39.058Z,4.95
2018-03-27T06:01:09.046Z,5.00
2018-03-27T06:03:38.914Z,4.99
2018-03-27T06:06:08.801Z,5.02
2018-03-27T06:08:38.771Z,5.01
2018-03-27T06:11:08.625Z,5.22
2018-03-27T06:13:38.492Z,5.32
2018-03-27T06:16:08.489Z,5.38
2018-03-27T06:18:38.519Z,5.48
2018-03-27T06:21:08.605Z,5.62
2018-03-27T06:23:38.634Z,5.74
2018-03-27T06:26:08.540Z,5.85
2018-03-27T06:28:38.622Z,5.94
2018-03-27T06:31:08.449Z,6.03
2018-03-27T06:33:38.349Z,6.09
2018-03-27T06:36:12.457Z,6.28
2018-03-27T06:38:42.453Z,6.46
2018-03-27T06:41:12.349Z,6.49
2018-03-27T06:43:42.193Z,6.62
2018-03-27T06:46:12.134Z,6.84
2018-03-27T06:48:41.972Z,6.95
2018-03-27T06:51:11.825Z,6.98
2018-03-27T06:53:41.688Z,7.10
2018-03-27T06:56:11.552Z,7.23
2018-03-27T06:58:41.393Z,7.36
2018-03-27T07:01:11.296Z,7.31
2018-03-27T07:03:41.291Z,7.45
2018-03-27T07:06:11.323Z,7.40
2018-03-27T07:08:41.151Z,7.34
2018-03-27T07:11:11.026Z,7.25
2018-03-27T07:13:40.944Z,7.23
2018-03-27T07:16:10.731Z,7.11
2018-03-27T07:18:40.908Z,7.15
2018-03-27T07:21:10.981Z,7.25
2018-03-27T07:23:40.844Z,7.39
2018-03-27T07:26:10.573Z,7.22
2018-03-27T07:28:40.421Z,7.21
2018-03-27T07:31:10.756Z,7.30
2018-03-27T07:33:40.689Z,7.32
2018-03-27T07:36:10.606Z,7.41
2018-03-27T07:38:40.585Z,7.46
2018-03-27T07:41:10.428Z,7.55
2018-03-27T07:43:40.308Z,7.64
2018-03-27T07:46:10.225Z,7.94
2018-03-27T07:48:40.109Z,8.06
2018-03-27T07:51:09.965Z,8.33
2018-03-27T07:53:40.072Z,8.77
2018-03-27T07:56:09.977Z,9.18
2018-03-27T07:58:39.974Z,9.44
2018-03-27T08:01:09.825Z,9.62
2018-03-27T08:03:39.661Z,9.77
2018-03-27T08:06:09.527Z,10.23
2018-03-27T08:08:39.465Z,10.75
2018-03-27T08:11:09.196Z,11.08
2018-03-27T08:13:39.193Z,10.83
2018-03-27T08:16:09.051Z,10.76
2018-03-27T08:18:39.117Z,10.82
2018-03-27T08:21:09.032Z,11.39
2018-03-27T08:23:38.886Z,11.65
2018-03-27T08:26:08.764Z,12.38
2018-03-27T08:28:38.678Z,13.53
2018-03-27T08:31:09.677Z,13.93
2018-03-27T08:33:39.528Z,12.92
2018-03-27T08:36:09.360Z,13.65
2018-03-27T08:38:39.237Z,12.94
2018-03-27T08:41:09.098Z,12.17
2018-03-27T08:43:38.985Z,11.78
2018-03-27T08:46:09.255Z,11.51
2018-03-27T08:48:39.188Z,11.29
2018-03-27T08:51:09.168Z,11.31
2018-03-27T08:53:39.083Z,11.40
2018-03-27T08:56:08.982Z,11.46
2018-03-27T08:58:39.094Z,11.45
2018-03-27T09:01:08.965Z,11.26
2018-03-27T09:03:38.930Z,11.31
2018-03-27T09:06:08.769Z,11.21
2018-03-27T09:08:38.685Z,11.31
2018-03-27T09:11:08.770Z,10.98
2018-03-27T09:13:38.640Z,10.99
2018-03-27T09:16:08.213Z,10.53
2018-03-27T09:18:38.104Z,10.26
2018-03-27T09:21:07.959Z,10.07
2018-03-27T09:23:37.848Z,10.29
2018-03-27T09:26:07.686Z,10.48
2018-03-27T09:28:37.586Z,10.33
2018-03-27T09:31:07.406Z,10.67
2018-03-27T09:33:37.887Z,10.45
2018-03-27T09:36:08.127Z,10.14
2018-03-27T09:38:38.001Z,10.17
2018-03-27T09:41:07.851Z,9.68
2018-03-27T09:43:37.688Z,9.77
2018-03-27T09:46:07.538Z,9.66
2018-03-27T09:48:37.145Z,9.39
2018-03-27T09:51:07.059Z,9.26
2018-03-27T09:53:36.892Z,9.10
2018-03-27T09:56:06.749Z,9.04
2018-03-27T09:58:36.337Z,9.03
2018-03-27T10:01:09.510Z,9.35
2018-03-27T10:03:39.370Z,9.15
2018-03-27T10:06:09.214Z,8.90
2018-03-27T10:08:39.120Z,9.06
2018-03-27T10:11:09.017Z,9.09
2018-03-27T10:13:38.868Z,9.20
2018-03-27T10:16:08.170Z,9.21
2018-03-27T10:18:38.899Z,9.22
2018-03-27T10:21:08.744Z,9.14
2018-03-27T10:23:38.746Z,9.07
2018-03-27T10:26:08.582Z,9.17
2018-03-27T10:28:39.394Z,9.14
2018-03-27T10:31:09.324Z,9.08
2018-03-27T10:33:39.196Z,8.75
2018-03-27T10:36:09.066Z,8.45
2018-03-27T10:38:38.900Z,8.27
2018-03-27T10:41:08.730Z,8.43
2018-03-27T10:43:38.600Z,8.39
2018-03-27T10:46:08.441Z,8.48
2018-03-27T10:48:38.294Z,8.78
2018-03-27T10:51:08.148Z,8.72
2018-03-27T10:53:38.514Z,8.77
2018-03-27T10:56:08.391Z,8.71
2018-03-27T10:58:38.225Z,8.98
2018-03-27T11:01:08.140Z,8.97
2018-03-27T11:03:38.003Z,8.97
2018-03-27T11:06:07.838Z,8.91
2018-03-27T11:08:38.703Z,9.03
2018-03-27T11:11:08.551Z,9.42
2018-03-27T11:13:38.397Z,9.91
2018-03-27T11:16:08.280Z,10.30
2018-03-27T11:18:38.133Z,10.60
2018-03-27T11:21:08.066Z,10.63
2018-03-27T11:23:38.485Z,10.79
2018-03-27T11:26:08.357Z,10.12
2018-03-27T11:28:38.208Z,9.66
2018-03-27T11:31:07.729Z,9.81
2018-03-27T11:33:37.583Z,9.63
2018-03-27T11:36:07.413Z,10.21
2018-03-27T11:38:37.319Z,10.40
2018-03-27T11:41:07.137Z,10.86
2018-03-27T11:43:37.021Z,11.73
2018-03-27T11:46:06.930Z,14.48
2018-03-27T11:48:36.836Z,18.28
2018-03-27T11:51:06.414Z,21.79
2018-03-27T11:53:36.001Z,21.77
2018-03-27T11:56:05.570Z,20.12
2018-03-27T11:58:35.130Z,18.79
2018-03-27T12:01:04.676Z,15.71
2018-03-27T12:03:34.259Z,14.12
2018-03-27T12:06:03.826Z,15.91
2018-03-27T12:08:33.393Z,17.29
2018-03-27T12:11:02.774Z,16.39
2018-03-27T12:13:32.336Z,15.60
2018-03-27T12:16:01.945Z,14.93
2018-03-27T12:18:31.535Z,14.53
2018-03-27T12:21:01.097Z,14.14
2018-03-27T12:23:30.945Z,15.31
2018-03-27T12:26:00.480Z,16.40
2018-03-27T12:28:30.065Z,18.52
2018-03-27T12:30:59.672Z,20.38
2018-03-27T12:33:29.202Z,22.54
2018-03-27T12:35:58.767Z,22.20
2018-03-27T12:38:28.350Z,20.51
2018-03-27T12:40:57.904Z,19.06
2018-03-27T12:43:27.472Z,17.92
2018-03-27T12:45:57.044Z,17.39
2018-03-27T12:48:26.603Z,16.48
2018-03-27T12:50:56.187Z,19.60
2018-03-27T12:53:25.763Z,19.70
2018-03-27T12:55:55.349Z,17.84
2018-03-27T12:58:24.914Z,19.13
2018-03-27T13:00:54.464Z,20.45
2018-03-27T13:03:24.028Z,19.52
2018-03-27T13:05:53.660Z,19.44
2018-03-27T13:08:23.229Z,21.95
2018-03-27T13:10:52.805Z,21.98
2018-03-27T13:13:22.366Z,23.46
2018-03-27T13:15:51.740Z,23.06
2018-03-27T13:18:21.330Z,20.69
2018-03-27T13:20:50.943Z,20.93
2018-03-27T13:23:21.525Z,21.41
2018-03-27T13:25:51.137Z,18.25
2018-03-27T13:28:20.755Z,19.19
2018-03-27T13:30:50.451Z,17.89
2018-03-27T13:33:20.016Z,17.52
2018-03-27T13:35:50.190Z,17.17
2018-03-27T13:38:20.134Z,15.15
2018-03-27T13:40:49.785Z,13.53
2018-03-27T13:43:19.715Z,13.00
2018-03-27T13:45:53.822Z,12.69
2018-03-27T13:48:23.680Z,12.98
2018-03-27T13:50:53.746Z,13.71
2018-03-27T13:53:23.822Z,14.93
2018-03-27T13:55:54.263Z,17.27
2018-03-27T13:58:23.873Z,17.43
2018-03-27T14:00:53.437Z,17.32
2018-03-27T14:03:23.029Z,15.94
2018-03-27T14:05:52.585Z,15.58
2018-03-27T14:08:22.170Z,16.59
2018-03-27T14:10:51.777Z,18.10
2018-03-27T14:13:21.328Z,19.51
2018-03-27T14:15:50.896Z,19.09
2018-03-27T14:18:20.462Z,18.54
2018-03-27T14:20:50.012Z,17.52
2018-03-27T14:23:19.718Z,16.67
2018-03-27T14:25:49.285Z,15.71
2018-03-27T14:28:18.841Z,13.86
2018-03-27T14:30:48.408Z,13.07
2018-03-27T14:33:18.116Z,11.49
2018-03-27T14:35:47.676Z,10.67
2018-03-27T14:38:17.568Z,10.27
2018-03-27T14:40:47.571Z,10.02
2018-03-27T14:43:17.425Z,9.64
2018-03-27T14:45:47.276Z,9.32
2018-03-27T14:48:17.098Z,9.13
2018-03-27T14:50:46.979Z,9.09
2018-03-27T14:53:16.818Z,9.45
2018-03-27T14:55:46.743Z,9.82
2018-03-27T14:58:16.608Z,9.94
2018-03-27T15:00:46.465Z,9.99
2018-03-27T15:03:16.333Z,9.99
2018-03-27T15:05:46.404Z,9.99
2018-03-27T15:08:16.266Z,9.35
2018-03-27T15:10:46.109Z,8.94
2018-03-27T15:13:15.999Z,9.00
2018-03-27T15:15:45.846Z,9.10
2018-03-27T15:18:15.769Z,9.73
2018-03-27T15:20:45.607Z,9.81
2018-03-27T15:23:15.488Z,9.55
2018-03-27T15:25:45.341Z,9.66
2018-03-27T15:28:15.932Z,9.77
2018-03-27T15:30:45.854Z,9.82
2018-03-27T15:33:15.721Z,9.51
2018-03-27T15:35:45.542Z,9.61
2018-03-27T15:38:15.383Z,9.73
2018-03-27T15:40:45.211Z,9.93
2018-03-27T15:43:15.047Z,8.70
2018-03-27T15:45:44.915Z,8.58
2018-03-27T15:48:14.806Z,8.92
2018-03-27T15:50:44.650Z,8.72
2018-03-27T15:53:14.523Z,8.68
2018-03-27T15:55:44.388Z,8.63
2018-03-27T15:58:14.972Z,8.66
2018-03-27T16:00:44.871Z,8.81
2018-03-27T16:03:14.726Z,9.13
2018-03-27T16:05:44.586Z,9.18
2018-03-27T16:08:14.443Z,9.17
2018-03-27T16:10:44.279Z,8.98
2018-03-27T16:13:14.173Z,8.88
2018-03-27T16:15:44.167Z,8.58
2018-03-27T16:18:13.676Z,8.45
2018-03-27T16:20:43.611Z,8.33
2018-03-27T16:23:13.481Z,8.05
2018-03-27T16:25:43.437Z,8.02
2018-03-27T16:28:13.273Z,7.83
2018-03-27T16:30:43.228Z,7.68
2018-03-27T16:33:13.623Z,7.63
2018-03-27T16:35:43.637Z,7.56
2018-03-27T16:38:13.515Z,7.35
2018-03-27T16:40:44.071Z,7.19
2018-03-27T16:43:14.157Z,6.98
2018-03-27T16:45:44.056Z,6.76
2018-03-27T16:48:14.114Z,6.53
2018-03-27T16:50:43.968Z,6.34
2018-03-27T16:53:14.151Z,6.09
2018-03-27T16:55:44.368Z,5.82
2018-03-27T16:58:14.198Z,5.65
2018-03-27T17:00:44.047Z,5.50
2018-03-27T17:03:13.922Z,5.30
2018-03-27T17:05:43.781Z,5.18
2018-03-27T17:08:13.649Z,5.05
2018-03-27T17:10:44.553Z,4.91
2018-03-27T17:13:14.447Z,4.81
2018-03-27T17:15:44.328Z,4.73
2018-03-27T17:21:50.933Z,4.88
2018-03-27T17:24:20.911Z,4.98
2018-03-27T17:26:51.460Z,4.99
2018-03-27T17:29:25.486Z,5.05
2018-03-27T17:31:56.410Z,5.13
2018-03-27T17:38:05.431Z,5.09
2018-03-27T17:46:15.636Z,4.84
2018-03-27T17:48:46.395Z,4.68
2018-03-27T17:59:25.305Z,3.91
2018-03-27T18:01:55.506Z,3.93
2018-03-27T18:04:26.705Z,3.67
2018-03-27T18:06:59.008Z,3.53
2018-03-27T18:09:30.383Z,3.88
2018-03-27T18:12:01.314Z,3.98
2018-03-27T18:14:31.746Z,3.75
2018-03-27T18:17:11.726Z,3.68
2018-03-27T18:19:45.077Z,3.77
2018-03-27T18:22:15.284Z,3.54
2018-03-27T18:24:45.252Z,3.75
2018-03-27T18:27:15.427Z,3.80
2018-03-27T18:29:45.606Z,3.79
2018-03-27T18:32:16.139Z,3.59
2018-03-27T18:34:46.605Z,3.55
2018-03-27T18:37:16.701Z,3.49
2018-03-27T18:39:47.167Z,3.49
2018-03-27T18:42:17.383Z,3.81
2018-03-27T18:44:48.282Z,3.80
2018-03-27T18:47:18.459Z,3.63
2018-03-27T18:49:53.088Z,3.53
2018-03-27T18:52:22.749Z,3.29
2018-03-27T18:54:54.684Z,3.18
2018-03-27T18:57:24.783Z,3.04
2018-03-27T19:00:00.160Z,2.86
2018-03-27T19:02:30.387Z,2.80
2018-03-27T19:05:01.205Z,2.69
2018-03-27T19:07:31.458Z,2.62
2018-03-27T19:10:01.835Z,2.51
2018-03-27T19:12:31.808Z,2.30
2018-03-27T19:15:01.909Z,2.18
2018-03-27T19:17:32.646Z,2.05
2018-03-27T19:20:02.956Z,2.00
2018-03-27T19:22:33.171Z,1.93
2018-03-27T19:25:03.464Z,1.93
2018-03-27T19:27:33.272Z,1.86
2018-03-27T19:30:03.561Z,1.78
2018-03-27T19:32:34.474Z,1.68
2018-03-27T19:35:04.228Z,1.63
2018-03-27T19:37:34.068Z,1.63
2018-03-27T19:40:04.395Z,1.55
2018-03-27T19:42:34.927Z,1.45
2018-03-27T19:45:04.587Z,1.40
2018-03-27T19:47:34.517Z,1.30
2018-03-27T19:50:03.918Z,1.21
2018-03-27T19:52:33.998Z,1.07
2018-03-27T19:55:04.112Z,1.06
2018-03-27T19:57:34.080Z,0.97
2018-03-27T20:00:03.758Z,0.87
2018-03-27T20:02:37.873Z,0.80
2018-03-27T20:05:08.179Z,0.76
2018-03-27T20:07:38.229Z,0.69
2018-03-27T20:10:08.253Z,0.69
2018-03-27T20:12:38.702Z,0.72
2018-03-27T20:15:08.830Z,0.82
2018-03-27T20:17:38.927Z,0.78
2018-03-27T20:20:09.015Z,0.78
2018-03-27T20:22:39.150Z,0.93
2018-03-27T20:25:13.290Z,0.94
2018-03-27T20:27:43.173Z,0.88
2018-03-27T20:30:13.069Z,0.82
2018-03-27T20:32:42.998Z,0.75
2018-03-27T20:35:13.066Z,0.64
2018-03-27T20:37:43.031Z,0.60
2018-03-27T20:40:13.057Z,0.52
2018-03-27T20:42:43.330Z,0.53
2018-03-27T20:45:13.500Z,0.57
2018-03-27T20:47:43.396Z,0.52
2018-03-27T20:50:14.336Z,0.71
2018-03-27T20:52:45.192Z,0.75
2018-03-27T20:58:23.087Z,0.60
2018-03-27T21:06:12.667Z,0.61
2018-03-27T21:08:43.235Z,0.64
2018-03-27T21:11:22.609Z,0.66
2018-03-27T21:13:52.614Z,0.57
2018-03-27T21:16:23.695Z,0.48
2018-03-27T21:18:55.600Z,0.44
2018-03-27T21:23:59.955Z,0.45
2018-03-27T21:26:30.012Z,0.35
2018-03-27T21:29:00.128Z,0.30
2018-03-27T21:31:30.220Z,0.28
2018-03-27T21:34:00.375Z,0.20
2018-03-27T21:39:18.952Z,0.11
2018-03-27T21:41:49.360Z,0.06
2018-03-27T21:44:19.354Z,0.08
2018-03-27T21:49:24.026Z,0.24
2018-03-27T21:51:54.213Z,0.13
2018-03-27T21:54:24.263Z,0.02
2018-03-27T21:56:54.355Z,-0.09
2018-03-27T21:59:29.079Z,-0.15
2018-03-27T22:01:59.708Z,-0.19
2018-03-27T22:04:29.823Z,-0.23
2018-03-27T22:06:59.748Z,-0.23
2018-03-27T22:09:30.079Z,-0.24
2018-03-27T22:12:00.638Z,-0.27
2018-03-27T22:17:04.134Z,-0.26
2018-03-27T22:19:35.152Z,-0.25
2018-03-27T22:24:42.780Z,-0.16
2018-03-27T22:29:49.211Z,0.11
2018-03-27T22:32:19.457Z,0.24
2018-03-27T22:34:51.338Z,0.27
2018-03-27T22:37:21.888Z,0.24
2018-03-27T22:39:58.485Z,0.23
2018-03-27T22:42:29.127Z,0.33
2018-03-27T22:45:00.927Z,0.34
2018-03-27T22:47:30.909Z,0.36
2018-03-27T22:50:00.982Z,0.45
2018-03-27T22:52:31.454Z,0.38
2018-03-27T22:55:01.576Z,0.33
2018-03-27T22:57:31.719Z,0.36
2018-03-27T23:00:01.764Z,0.33
2018-03-27T23:02:37.066Z,0.40
2018-03-27T23:05:07.110Z,0.35
2018-03-27T23:07:37.787Z,0.33
2018-03-27T23:10:07.731Z,0.32
2018-03-27T23:12:38.561Z,0.18
2018-03-27T23:15:08.737Z,0.07
